Emmer-Compascuum, Netherlands
Current Conditions -  °F | °C
As of 8:55 PM on Tuesday 21 Oct 2014 (Local Time) from EHGG Reporting Station
Drizzle Drizzle  
Wind Chill: 50°   Ceiling: Unl
Heat Index: 50°   Visibility: 6mi
Dew Point: 43°   Wind: 18mph
Humidity: 76%   Direction: 290°WNW
Pressure: 29.5"   Gusts: 33mph
Location:  52.81°N, 7.05°E
Report Text: EHGG 211855Z AUTO 29016G29KT 240V330 9999 DZ FEW030 SCT04510/06 Q0999 TEMPO 29020G32KT 7000 -SHRA FEW025CB
Loading
Personal Weather Stations






























Interactive Weather Map
Tropical Storm Tracking
New forecast layout! Learn more

10-Day Weather Forecast

Advertisements
Track Severe Weather on mobile